Time;durP1;ratioP1;P1;durP2;ratioP2;P2;SDS_P1;SDS_P2;PMS_P1;PMS_P2;Temp;Humidity;BMP_temperature;BMP_pressure;BME280_temperature;BME280_humidity;BME280_pressure;Samples;Min_cycle;Max_cycle;Signal;HPM_P1;HPM_P2
2022/07/29 00:02:10;;;;;;;9.13;5.72;;;;;;;25.32;67.63;100753.47;5033309;28;20057;-78
2022/07/29 00:04:36;;;;;;;13.57;5.68;;;;;;;25.38;67.70;100752.66;5033294;28;20037;-79
2022/07/29 00:07:03;;;;;;;18.08;5.47;;;;;;;25.28;68.02;100755.00;5033459;28;20025;-79
2022/07/29 00:09:28;;;;;;;24.20;6.72;;;;;;;25.24;67.94;100750.97;5033352;28;20086;-79
2022/07/29 00:11:58;;;;;;;11.55;6.57;;;;;;;25.11;68.10;100742.75;5033873;28;20461;-79
2022/07/29 00:14:23;;;;;;;14.90;5.30;;;;;;;25.13;67.98;100740.66;5038502;28;20032;-79
2022/07/29 00:16:49;;;;;;;18.95;7.82;;;;;;;25.15;68.01;100746.78;5033728;28;20582;-79
2022/07/29 00:19:14;;;;;;;13.43;5.47;;;;;;;25.11;68.07;100751.03;5031635;28;20029;-80
2022/07/29 00:21:40;;;;;;;7.97;5.22;;;;;;;25.01;67.55;100743.25;5033838;28;20471;-79
2022/07/29 00:24:05;;;;;;;10.45;5.45;;;;;;;24.94;67.48;100749.81;5033584;28;20448;-79
2022/07/29 00:26:32;;;;;;;8.02;5.22;;;;;;;25.00;67.27;100755.31;5013806;28;20499;-79
2022/07/29 00:29:02;;;;;;;5.55;4.32;;;;;;;25.08;66.78;100757.81;5014888;28;20061;-79
2022/07/29 00:31:28;;;;;;;10.18;4.65;;;;;;;24.99;66.88;100758.25;5022663;28;20032;-79
2022/07/29 00:33:54;;;;;;;7.47;4.60;;;;;;;25.03;66.67;100754.88;5024667;28;20037;-79
2022/07/29 00:36:20;;;;;;;4.78;3.60;;;;;;;24.89;67.18;100759.53;5033501;28;20025;-79
2022/07/29 00:38:50;;;;;;;13.95;5.18;;;;;;;24.85;67.20;100752.78;5033411;28;20410;-79
2022/07/29 00:41:17;;;;;;;22.50;6.15;;;;;;;24.90;67.28;100761.25;5033325;28;20567;-79
2022/07/29 00:43:43;;;;;;;15.20;5.10;;;;;;;24.90;67.27;100760.38;5033048;28;20033;-78
2022/07/29 00:46:09;;;;;;;9.50;5.28;;;;;;;24.85;66.86;100751.94;5033129;28;20079;-79
2022/07/29 00:48:34;;;;;;;7.95;4.65;;;;;;;24.88;66.89;100743.25;5033154;28;20087;-79
2022/07/29 00:51:02;;;;;;;11.13;4.00;;;;;;;24.92;65.88;100748.09;5032729;28;20037;-79
2022/07/29 00:53:28;;;;;;;7.60;3.65;;;;;;;24.96;65.37;100750.44;5032834;28;20040;-79
2022/07/29 00:55:55;;;;;;;4.32;3.00;;;;;;;24.94;64.74;100733.28;5031824;28;20026;-79
2022/07/29 00:58:21;;;;;;;7.78;2.72;;;;;;;24.97;63.98;100749.38;5032921;28;20029;-79
2022/07/29 01:00:46;;;;;;;9.20;2.80;;;;;;;24.86;63.82;100740.72;5032963;28;20058;-79
2022/07/29 01:03:12;;;;;;;6.72;2.80;;;;;;;24.92;63.59;100748.09;5033298;28;20033;-79
2022/07/29 01:05:39;;;;;;;5.78;3.45;;;;;;;25.02;63.69;100742.16;5033260;28;20026;-79
2022/07/29 01:08:06;;;;;;;5.72;3.25;;;;;;;25.01;63.68;100734.97;5033140;28;20025;-79
2022/07/29 01:10:32;;;;;;;6.47;4.07;;;;;;;24.95;64.16;100741.34;5032667;28;20029;-79
2022/07/29 01:13:00;;;;;;;11.55;3.92;;;;;;;25.00;64.49;100747.03;5032721;28;20031;-79
2022/07/29 01:15:26;;;;;;;10.10;4.32;;;;;;;25.00;64.42;100746.19;5032878;28;20104;-78
2022/07/29 01:18:18;;;;;;;7.45;4.65;;;;;;;24.92;65.19;100748.09;5032420;28;20081;-79
2022/07/29 01:21:18;;;;;;;16.90;5.47;;;;;;;24.75;66.00;100748.75;5032385;28;20079;-79
2022/07/29 01:23:55;;;;;;;8.82;4.60;;;;;;;24.69;66.21;100744.09;5032842;28;20034;-79
2022/07/29 01:26:58;;;;;;;11.52;4.60;;;;;;;24.66;65.85;100733.53;5032774;28;20068;-79
2022/07/29 01:29:32;;;;;;;14.05;5.45;;;;;;;24.66;65.89;100737.13;5032769;28;20018;-79
2022/07/29 01:32:21;;;;;;;17.48;5.72;;;;;;;24.59;66.14;100725.28;5051952;28;20033;-79
2022/07/29 01:34:49;;;;;;;20.40;7.78;;;;;;;24.62;65.95;100735.00;5049268;28;20028;-79
2022/07/29 01:37:17;;;;;;;20.40;6.40;;;;;;;24.56;65.95;100739.47;5052628;28;20105;-79
2022/07/29 01:39:46;;;;;;;18.35;6.43;;;;;;;24.58;65.98;100737.34;5053429;28;20036;-79
2022/07/29 01:42:25;;;;;;;13.43;7.28;;;;;;;24.61;65.96;100739.69;5034635;28;20124;-79
2022/07/29 01:44:59;;;;;;;16.75;8.13;;;;;;;24.64;65.66;100733.75;5051832;28;20060;-79
2022/07/29 01:47:31;;;;;;;25.30;9.02;;;;;;;24.52;65.61;100729.97;5036762;28;20026;-79
2022/07/29 01:49:58;;;;;;;;;;;;;;;24.47;65.84;100737.97;5035729;28;20032;-79
2022/07/29 01:52:30;;;;;;;29.05;9.55;;;;;;;24.37;66.03;100732.09;5032521;28;19916;-79
2022/07/29 01:55:01;;;;;;;20.52;9.13;;;;;;;24.30;66.32;100718.34;5047584;28;20057;-79
2022/07/29 01:57:31;;;;;;;27.60;8.68;;;;;;;24.32;66.19;100734.59;5053227;28;20025;-79
2022/07/29 02:00:00;;;;;;;21.25;8.35;;;;;;;24.22;66.60;100714.94;5049017;28;20025;-78
2022/07/29 02:02:27;;;;;;;20.52;8.20;;;;;;;24.30;66.30;100720.25;5035440;28;20515;-78
2022/07/29 02:04:54;;;;;;;23.13;7.93;;;;;;;24.26;66.14;100722.56;5053844;28;20063;-78
2022/07/29 02:07:21;;;;;;;21.08;9.25;;;;;;;24.20;66.94;100719.81;5054070;28;20040;-79
2022/07/29 02:09:50;;;;;;;22.73;7.88;;;;;;;24.21;66.83;100716.00;5035790;28;20419;-79
2022/07/29 02:12:17;;;;;;;21.88;7.72;;;;;;;24.17;66.94;100723.81;5035931;28;20029;-79
2022/07/29 02:14:48;;;;;;;19.33;6.43;;;;;;;24.17;67.00;100728.47;5036408;28;20100;-79
2022/07/29 02:17:18;;;;;;;14.43;6.20;;;;;;;24.07;67.18;100714.25;5055040;28;20040;-79
2022/07/29 02:19:45;;;;;;;20.42;7.75;;;;;;;24.19;66.70;100729.09;5055421;28;20032;-79
2022/07/29 02:22:12;;;;;;;20.48;6.68;;;;;;;24.15;66.84;100723.19;5055823;28;20029;-80
2022/07/29 02:24:40;;;;;;;27.55;8.57;;;;;;;24.16;66.67;100718.53;5039897;28;20503;-79
2022/07/29 02:27:08;;;;;;;17.67;7.13;;;;;;;24.13;66.77;100721.69;5036150;28;20423;-79
2022/07/29 02:29:35;;;;;;;17.55;7.60;;;;;;;24.17;66.79;100717.47;5035575;28;20029;-79
2022/07/29 02:32:03;;;;;;;21.70;7.72;;;;;;;24.05;66.90;100716.38;5035801;28;20033;-79
2022/07/29 02:34:29;;;;;;;21.73;7.55;;;;;;;24.04;66.74;100706.44;5035861;28;20029;-78
2022/07/29 02:36:55;;;;;;;20.88;8.57;;;;;;;24.08;66.87;100721.47;5035555;28;20435;-79
2022/07/29 02:39:24;;;;;;;24.80;8.52;;;;;;;24.08;66.72;100724.22;5035691;28;20029;-79
2022/07/29 02:42:03;;;;;;;19.90;9.63;;;;;;;24.13;66.71;100729.94;5035313;28;20041;-79
2022/07/29 02:44:28;;;;;;;26.02;8.82;;;;;;;24.06;67.02;100735.44;5035630;28;20068;-79
2022/07/29 02:47:03;;;;;;;20.35;8.63;;;;;;;24.05;67.25;100730.13;5035152;28;20033;-80
2022/07/29 02:49:34;;;;;;;23.02;9.20;;;;;;;24.12;66.86;100728.28;5035154;28;20087;-79
2022/07/29 02:52:43;;;;;;;18.57;9.17;;;;;;;24.03;67.23;100729.50;5035714;28;20067;-79
2022/07/29 02:55:33;;;;;;;25.17;8.27;;;;;;;24.16;67.14;100724.88;5003138;28;20044;-79
2022/07/29 02:58:08;;;;;;;17.27;7.93;;;;;;;24.13;66.99;100732.69;5035507;28;20031;-80
2022/07/29 03:00:38;;;;;;;14.25;7.43;;;;;;;24.17;67.50;100731.22;5035182;28;20503;-79
2022/07/29 03:03:09;;;;;;;20.40;6.75;;;;;;;24.13;67.50;100730.78;5035227;28;20037;-79
2022/07/29 03:05:35;;;;;;;11.50;3.63;;;;;;;24.20;67.90;100736.28;5035477;28;20037;-80
2022/07/29 03:08:04;;;;;;;5.55;3.25;;;;;;;24.18;68.62;100738.41;5035180;28;20491;-79
2022/07/29 03:10:30;;;;;;;5.68;3.45;;;;;;;24.18;69.20;100738.41;5033446;28;20067;-79
2022/07/29 03:12:57;;;;;;;5.68;3.33;;;;;;;24.20;69.43;100741.78;5035245;28;20068;-85
2022/07/29 03:15:23;;;;;;;14.50;4.05;;;;;;;24.15;69.46;100733.34;5035970;28;20064;-85
2022/07/29 03:17:50;;;;;;;5.55;3.55;;;;;;;24.26;69.39;100746.44;5035916;28;20064;-86
2022/07/29 03:20:17;;;;;;;11.57;5.70;;;;;;;24.31;69.20;100752.19;5031046;28;20554;-86
2022/07/29 03:22:46;;;;;;;6.15;3.85;;;;;;;24.31;69.34;100747.50;5038369;28;20029;-88
2022/07/29 03:25:17;;;;;;;7.30;3.42;;;;;;;24.37;69.08;100749.41;5056422;28;20108;-88
2022/07/29 03:27:43;;;;;;;5.85;2.85;;;;;;;24.36;68.91;100755.97;5056351;28;20024;-87
2022/07/29 03:30:11;;;;;;;8.43;3.40;;;;;;;24.39;69.19;100757.47;5037994;28;20020;-88
2022/07/29 03:32:37;;;;;;;10.93;3.63;;;;;;;24.42;68.81;100761.69;5029109;28;20041;-89
2022/07/29 03:35:03;;;;;;;9.30;3.78;;;;;;;24.45;68.82;100773.09;5055406;28;20025;-87
2022/07/29 03:37:30;;;;;;;7.63;3.47;;;;;;;24.38;69.10;100755.75;5055431;28;20032;-89
2022/07/29 03:39:57;;;;;;;6.65;3.15;;;;;;;24.47;69.04;100765.47;5055976;28;20021;-87
2022/07/29 03:42:31;;;;;;;6.38;3.95;;;;;;;24.47;69.08;100765.47;5056858;28;20078;-85
2022/07/29 03:44:58;;;;;;;9.20;4.13;;;;;;;24.46;69.09;100760.22;5057147;28;20106;-85
2022/07/29 03:47:28;;;;;;;13.20;4.70;;;;;;;24.48;68.97;100763.59;5038596;28;20033;-87
2022/07/29 03:49:59;;;;;;;10.43;3.50;;;;;;;24.49;68.72;100768.88;5056688;28;20037;-85
2022/07/29 03:52:25;;;;;;;9.30;3.20;;;;;;;24.53;68.50;100758.28;5039850;28;20028;-88
2022/07/29 03:54:51;;;;;;;8.48;5.28;;;;;;;24.50;68.42;100764.22;5055765;28;20100;-84
2022/07/29 03:57:20;;;;;;;8.20;4.88;;;;;;;24.53;68.35;100759.13;5036807;28;20040;-87
2022/07/29 03:59:46;;;;;;;13.35;4.28;;;;;;;24.57;68.28;100765.91;5034440;28;20041;-84
2022/07/29 04:02:12;;;;;;;17.55;4.72;;;;;;;24.66;68.23;100772.88;5034555;28;20053;-89
2022/07/29 04:04:38;;;;;;;14.60;3.95;;;;;;;24.73;67.74;100775.63;5035390;28;20034;-84
2022/07/29 04:07:04;;;;;;;28.60;11.07;;;;;;;24.61;67.19;100782.84;5034971;28;20025;-85
2022/07/29 04:09:30;;;;;;;25.25;7.68;;;;;;;24.62;66.95;100771.59;5035446;28;20033;-84
2022/07/29 04:11:55;;;;;;;10.05;4.38;;;;;;;24.67;67.28;100782.00;5035754;28;20467;-86
2022/07/29 04:14:21;;;;;;;10.30;3.97;;;;;;;24.63;67.41;100776.06;5035823;28;20111;-84
2022/07/29 04:16:46;;;;;;;16.05;4.32;;;;;;;24.66;67.65;100774.78;5036013;28;20052;-83
2022/07/29 04:19:12;;;;;;;15.63;4.90;;;;;;;24.80;66.98;100768.19;5034708;28;20025;-87
2022/07/29 04:21:39;;;;;;;12.55;5.00;;;;;;;24.82;66.96;100769.72;5034743;28;20037;-83
2022/07/29 04:24:05;;;;;;;15.50;5.70;;;;;;;24.84;66.53;100761.25;5034714;28;20090;-84
2022/07/29 04:26:31;;;;;;;17.98;5.72;;;;;;;24.85;66.55;100769.31;5034677;28;20055;-80
2022/07/29 04:28:56;;;;;;;20.45;5.63;;;;;;;24.87;66.73;100763.56;5034907;28;20021;-84
2022/07/29 04:31:22;;;;;;;21.30;5.00;;;;;;;24.97;66.19;100765.88;5037057;28;20079;-84
2022/07/29 04:33:47;;;;;;;8.63;3.38;;;;;;;25.03;66.11;100767.78;5035728;28;20036;-79
2022/07/29 04:36:13;;;;;;;12.85;3.83;;;;;;;25.04;65.39;100772.22;5031931;28;20031;-76
2022/07/29 04:38:38;;;;;;;32.60;5.85;;;;;;;25.13;65.43;100776.44;5032583;28;20031;-75
2022/07/29 04:41:06;;;;;;;13.20;3.83;;;;;;;25.14;65.21;100758.84;5049525;28;20036;-81
2022/07/29 04:43:32;;;;;;;8.43;3.72;;;;;;;25.15;64.70;100753.13;5041090;28;20075;-83
2022/07/29 04:45:58;;;;;;;8.68;3.67;;;;;;;25.13;64.62;100743.41;5016030;28;20032;-79
2022/07/29 04:48:23;;;;;;;8.07;3.30;;;;;;;25.25;64.31;100755.44;5048587;28;20025;-80
2022/07/29 04:50:49;;;;;;;11.00;3.95;;;;;;;25.26;63.88;100763.47;5034029;28;20104;-79
2022/07/29 04:53:14;;;;;;;7.93;3.47;;;;;;;25.33;63.90;100760.69;5033073;28;20428;-78
2022/07/29 04:55:40;;;;;;;21.42;4.30;;;;;;;25.36;63.17;100757.50;5033238;28;20464;-81
2022/07/29 04:58:05;;;;;;;8.18;3.97;;;;;;;25.41;63.08;100757.72;5034984;28;20500;-86
2022/07/29 05:00:31;;;;;;;13.73;4.45;;;;;;;25.43;62.99;100764.69;5041915;28;20132;-79
2022/07/29 05:02:56;;;;;;;9.30;4.00;;;;;;;25.50;63.23;100755.59;5026539;28;20065;-76
2022/07/29 05:05:21;;;;;;;9.93;4.07;;;;;;;25.47;63.00;100743.06;5041493;28;20033;-79
2022/07/29 05:07:47;;;;;;;9.55;3.83;;;;;;;25.65;62.47;100751.47;5052660;28;20545;-80
2022/07/29 05:10:12;;;;;;;10.73;4.15;;;;;;;25.72;62.27;100749.50;5054256;28;20439;-87
2022/07/29 05:12:39;;;;;;;14.30;4.90;;;;;;;25.79;61.99;100747.56;5031474;28;20483;-94
2022/07/29 05:15:05;;;;;;;18.42;5.43;;;;;;;25.78;61.82;100743.13;5041431;28;20018;-92
2022/07/29 05:17:30;;;;;;;16.25;4.60;;;;;;;25.89;61.13;100750.69;5044747;28;20128;-90
2022/07/29 05:19:56;;;;;;;14.35;6.07;;;;;;;25.90;61.32;100741.34;5059846;28;20108;-96
2022/07/29 05:22:21;;;;;;;12.55;5.72;;;;;;;26.03;61.03;100751.44;5041831;28;20029;-90
2022/07/29 05:24:47;;;;;;;11.40;4.65;;;;;;;26.16;60.87;100751.41;5040595;28;20025;-85
2022/07/29 05:27:13;;;;;;;10.05;5.03;;;;;;;26.11;59.90;100736.56;5042282;28;20033;-90
2022/07/29 05:29:39;;;;;;;22.33;5.63;;;;;;;26.29;59.74;100751.31;5018600;28;20052;-89
2022/07/29 05:32:05;;;;;;;23.33;8.05;;;;;;;26.37;59.92;100747.41;5016083;28;20056;-82
2022/07/29 05:34:31;;;;;;;25.48;8.63;;;;;;;26.48;60.05;100744.75;5041126;28;20515;-82
2022/07/29 05:36:56;;;;;;;18.80;6.10;;;;;;;26.58;59.08;100752.53;5036202;28;20092;-81
2022/07/29 05:39:22;;;;;;;29.77;9.27;;;;;;;26.63;59.52;100752.72;5034811;28;20120;-80
2022/07/29 05:41:47;;;;;;;16.75;7.47;;;;;;;26.69;59.24;100746.28;5036878;28;20112;-87
2022/07/29 05:44:13;;;;;;;18.88;8.10;;;;;;;26.75;59.36;100745.38;5019980;28;20021;-86
2022/07/29 05:46:39;;;;;;;34.50;8.82;;;;;;;26.79;59.93;100752.09;5019903;28;20025;-85
2022/07/29 05:49:06;;;;;;;30.55;8.93;;;;;;;26.86;59.77;100752.06;5037038;28;20037;-85
2022/07/29 05:51:32;;;;;;;29.10;8.75;;;;;;;26.93;59.88;100756.47;5037365;28;20112;-85
2022/07/29 05:53:57;;;;;;;25.17;8.02;;;;;;;26.91;59.88;100755.81;5036995;28;20025;-86
2022/07/29 05:56:23;;;;;;;31.55;8.88;;;;;;;26.90;60.58;100765.19;5037388;28;20032;-85
2022/07/29 05:58:49;;;;;;;26.23;7.68;;;;;;;26.87;60.65;100762.06;5036866;28;20483;-87
2022/07/29 06:01:14;;;;;;;19.50;7.13;;;;;;;26.92;60.69;100756.69;5037172;28;20076;-86
2022/07/29 06:03:41;;;;;;;22.10;9.38;;;;;;;26.90;60.67;100753.31;5036512;28;20503;-85
2022/07/29 06:06:07;;;;;;;23.33;8.30;;;;;;;26.76;60.73;100747.03;5036940;28;20108;-84
2022/07/29 06:08:33;;;;;;;17.85;7.50;;;;;;;26.87;59.93;100760.13;5037351;28;20033;-86
2022/07/29 06:10:59;;;;;;;21.40;7.47;;;;;;;26.85;59.37;100755.88;5036845;28;20029;-85
2022/07/29 06:13:25;;;;;;;18.13;7.60;;;;;;;26.99;59.88;100774.03;5037308;28;20083;-84
2022/07/29 06:15:50;;;;;;;27.10;9.18;;;;;;;26.98;59.50;100761.28;5037012;28;20471;-85
2022/07/29 06:18:16;;;;;;;18.45;7.00;;;;;;;27.14;59.01;100765.38;5037548;28;20025;-85
2022/07/29 06:20:42;;;;;;;13.68;7.10;;;;;;;27.24;58.95;100771.22;5022680;28;20041;-85
2022/07/29 06:23:07;;;;;;;16.80;6.57;;;;;;;27.33;58.82;100769.81;5024987;28;21471;-84
2022/07/29 06:25:35;;;;;;;17.92;7.28;;;;;;;27.31;58.63;100753.47;5037992;28;20056;-85
2022/07/29 06:28:00;;;;;;;20.50;6.82;;;;;;;27.44;58.12;100750.56;5036148;28;20084;-84
2022/07/29 06:30:26;;;;;;;17.77;6.57;;;;;;;27.49;57.41;100763.72;5018605;28;20029;-82
2022/07/29 06:32:52;;;;;;;15.23;7.25;;;;;;;27.54;56.21;100761.09;5036089;28;20044;-85
2022/07/29 06:35:17;;;;;;;25.50;6.18;;;;;;;27.69;55.82;100764.28;5035929;28;20055;-84
2022/07/29 06:37:42;;;;;;;20.85;5.88;;;;;;;27.72;55.21;100749.16;5017848;28;20045;-85
2022/07/29 06:42:52;;;;;;;21.10;6.15;;;;;;;27.80;55.88;100755.19;5035795;28;20435;-80
2022/07/29 06:45:18;;;;;;;18.40;6.78;;;;;;;27.87;54.87;100755.09;5035805;28;20026;-79
2022/07/29 06:47:44;;;;;;;19.00;6.25;;;;;;;27.95;55.18;100757.56;5033458;28;20778;-80
2022/07/29 06:50:12;;;;;;;13.57;5.03;;;;;;;28.01;54.54;100762.97;5034846;28;20072;-80
2022/07/29 06:52:38;;;;;;;21.00;5.93;;;;;;;28.05;54.15;100766.97;5035818;28;20115;-84
2022/07/29 06:55:04;;;;;;;17.77;5.65;;;;;;;28.07;54.13;100767.56;5036857;28;20029;-84
2022/07/29 06:57:29;;;;;;;23.40;5.60;;;;;;;28.18;53.87;100770.63;5016451;28;20411;-85
2022/07/29 06:59:58;;;;;;;16.02;5.90;;;;;;;28.09;53.71;100754.38;5035356;28;20041;-86
2022/07/29 07:02:24;;;;;;;32.85;7.65;;;;;;;28.21;53.29;100756.31;5033968;28;20053;-82
2022/07/29 07:04:49;;;;;;;21.83;6.60;;;;;;;28.18;52.57;100742.97;5032328;28;20045;-80
2022/07/29 07:07:15;;;;;;;26.38;7.05;;;;;;;28.20;52.91;100755.47;5032800;28;20088;-79
2022/07/29 07:09:40;;;;;;;15.50;5.95;;;;;;;28.36;52.26;100753.94;5032595;28;20121;-79
2022/07/29 07:12:06;;;;;;;30.45;8.00;;;;;;;28.38;51.97;100768.38;5032374;28;20018;-77
2022/07/29 07:14:32;;;;;;;45.20;6.75;;;;;;;28.37;51.73;100753.72;5015442;28;20083;-80
2022/07/29 07:17:00;;;;;;;14.18;5.60;;;;;;;28.43;51.85;100762.97;5034165;28;20419;-80
2022/07/29 07:19:25;;;;;;;16.05;6.50;;;;;;;28.47;51.76;100775.28;5034637;28;20029;-80
2022/07/29 07:21:52;;;;;;;21.55;5.50;;;;;;;28.54;51.74;100763.00;5034435;28;20037;-81
2022/07/29 07:24:17;;;;;;;10.85;4.85;;;;;;;28.47;51.37;100767.78;5033204;28;20051;-81
2022/07/29 07:26:43;;;;;;;7.80;4.57;;;;;;;28.39;51.11;100775.59;5034670;28;20021;-81
2022/07/29 07:29:08;;;;;;;10.07;4.57;;;;;;;28.31;50.96;100767.66;5035393;28;20083;-79
2022/07/29 07:31:33;;;;;;;20.73;4.47;;;;;;;28.29;50.92;100769.78;5034438;28;20483;-82
2022/07/29 07:33:59;;;;;;;9.40;3.92;;;;;;;28.26;50.77;100778.56;5033848;28;20041;-82
2022/07/29 07:36:24;;;;;;;12.55;4.35;;;;;;;28.32;50.69;100774.84;5034314;28;20021;-81
2022/07/29 07:38:50;;;;;;;23.02;4.78;;;;;;;28.31;50.43;100770.41;5016403;28;20028;-80
2022/07/29 07:41:16;;;;;;;12.43;4.78;;;;;;;28.29;50.42;100776.19;5034299;28;20411;-81
2022/07/29 07:43:41;;;;;;;12.48;3.90;;;;;;;28.30;51.02;100779.78;5034953;28;20407;-81
2022/07/29 07:46:06;;;;;;;11.48;3.58;;;;;;;28.29;51.37;100780.84;5035169;28;20100;-82
2022/07/29 07:48:34;;;;;;;21.58;4.22;;;;;;;28.32;51.60;100788.69;5035106;28;20018;-82
2022/07/29 07:51:00;;;;;;;10.55;3.95;;;;;;;28.32;52.13;100777.63;5016680;28;20772;-82
2022/07/29 07:53:26;;;;;;;10.90;3.60;;;;;;;28.31;52.41;100775.97;5035244;28;20029;-81
2022/07/29 07:55:51;;;;;;;8.23;3.28;;;;;;;28.35;51.86;100774.38;5033960;28;20036;-81
2022/07/29 07:58:16;;;;;;;7.35;4.13;;;;;;;28.42;51.25;100770.44;5034873;28;20129;-81
2022/07/29 08:00:42;;;;;;;16.63;4.45;;;;;;;28.51;51.40;100765.38;5034292;28;20491;-81
2022/07/29 08:03:12;;;;;;;12.77;3.33;;;;;;;28.61;51.39;100757.34;5034166;28;20025;-81
2022/07/29 08:05:37;;;;;;;11.05;3.97;;;;;;;28.72;50.02;100759.31;5033929;28;20033;-81
2022/07/29 08:08:03;;;;;;;13.45;3.55;;;;;;;28.81;49.90;100745.94;5016030;28;20033;-81
2022/07/29 08:13:13;;;;;;;15.48;3.45;;;;;;;28.83;50.57;100766.78;5034595;28;20109;-78
2022/07/29 08:15:39;;;;;;;80.53;6.57;;;;;;;28.79;50.47;100764.72;5033041;28;20041;-77
2022/07/29 08:18:04;;;;;;;16.13;3.15;;;;;;;28.92;50.53;100770.03;5032176;28;20459;-79
2022/07/29 08:20:32;;;;;;;10.38;3.00;;;;;;;28.97;50.09;100773.75;5033023;28;20029;-79
2022/07/29 08:22:59;;;;;;;9.18;3.40;;;;;;;29.08;50.23;100761.81;5032906;28;20029;-78
2022/07/29 08:25:24;;;;;;;8.88;2.75;;;;;;;29.15;49.56;100762.53;5032784;28;20021;-79
2022/07/29 08:27:49;;;;;;;27.73;3.40;;;;;;;29.22;48.53;100754.09;5032534;28;20076;-82
2022/07/29 08:30:15;;;;;;;17.67;3.17;;;;;;;29.23;48.92;100758.56;5032730;28;20472;-80
2022/07/29 08:32:41;;;;;;;6.97;2.90;;;;;;;29.40;49.00;100755.88;5032310;28;20029;-79
2022/07/29 08:35:07;;;;;;;6.20;3.13;;;;;;;29.60;48.08;100756.31;5032825;28;20056;-82
2022/07/29 08:37:32;;;;;;;5.82;3.17;;;;;;;29.74;47.16;100752.16;5033032;28;20056;-82
2022/07/29 08:39:58;;;;;;;7.88;2.65;;;;;;;29.92;46.50;100765.84;5033288;28;20032;-83
2022/07/29 08:42:23;;;;;;;10.10;3.38;;;;;;;30.06;46.95;100752.53;5033301;28;20021;-82
2022/07/29 08:44:50;;;;;;;8.65;2.83;;;;;;;30.12;46.10;100749.56;5034016;28;20507;-82
2022/07/29 08:47:16;;;;;;;13.05;2.80;;;;;;;30.25;45.58;100748.41;5033692;28;20407;-82
2022/07/29 08:49:41;;;;;;;5.43;3.38;;;;;;;30.32;44.79;100737.16;5033855;28;20021;-87
2022/07/29 08:52:10;;;;;;;10.02;2.97;;;;;;;30.47;44.39;100752.16;5034673;28;20030;-85
2022/07/29 08:54:36;;;;;;;10.13;3.00;;;;;;;30.57;43.62;100741.25;5017313;28;20043;-87
2022/07/29 08:57:02;;;;;;;6.47;3.10;;;;;;;30.63;43.94;100737.44;5034291;28;20407;-86
2022/07/29 08:59:30;;;;;;;22.77;3.55;;;;;;;30.73;43.84;100739.53;5034219;28;20039;-86
2022/07/29 09:01:59;;;;;;;10.50;3.08;;;;;;;30.81;43.56;100741.88;5016896;28;20432;-86
2022/07/29 09:04:27;;;;;;;5.45;3.05;;;;;;;30.77;43.05;100738.75;5036669;28;20048;-89
2022/07/29 09:06:56;;;;;;;8.18;3.42;;;;;;;30.85;43.20;100729.16;5035752;28;20483;-86
2022/07/29 09:09:22;;;;;;;17.73;3.55;;;;;;;30.82;42.53;100726.91;5039942;28;20052;-92
2022/07/29 09:11:48;;;;;;;11.55;3.55;;;;;;;30.97;41.94;100741.03;5038736;28;20472;-86
2022/07/29 09:14:13;;;;;;;6.78;2.63;;;;;;;31.03;40.88;100742.78;5040992;28;20017;-91
2022/07/29 09:16:47;;;;;;;27.77;3.20;;;;;;;31.01;41.45;100744.16;5021009;28;20025;-85
2022/07/29 09:19:22;;;;;;;8.43;3.08;;;;;;;30.92;42.59;100727.03;5040234;28;20033;-85
2022/07/29 09:21:57;;;;;;;13.73;3.60;;;;;;;30.96;42.97;100735.72;5023375;28;20487;-92
2022/07/29 09:24:23;;;;;;;10.25;2.88;;;;;;;31.08;44.11;100742.84;5022572;28;20052;-89
2022/07/29 09:26:48;;;;;;;15.07;3.30;;;;;;;30.92;44.70;100723.41;5040332;28;20499;-82
2022/07/29 09:29:17;;;;;;;8.93;3.08;;;;;;;30.99;45.34;100735.22;5038285;28;20025;-85
2022/07/29 09:31:52;;;;;;;8.82;2.58;;;;;;;30.93;45.83;100731.50;5037083;28;20029;-86
2022/07/29 09:34:25;;;;;;;12.98;3.42;;;;;;;30.94;45.50;100736.00;5020978;28;20029;-83
2022/07/29 09:36:53;;;;;;;13.82;3.17;;;;;;;30.98;45.49;100734.38;5038471;28;20021;-86
2022/07/29 09:39:45;;;;;;;14.18;4.05;;;;;;;31.10;46.11;100734.28;5022352;28;20037;-88
2022/07/29 09:42:11;;;;;;;10.20;2.90;;;;;;;31.10;45.83;100728.72;5039231;28;20026;-89
2022/07/29 09:44:48;;;;;;;26.88;4.35;;;;;;;31.14;45.85;100736.28;5038937;28;20036;-85
2022/07/29 09:47:15;;;;;;;20.40;3.05;;;;;;;31.14;45.19;100730.72;5038517;28;20056;-87
2022/07/29 09:49:52;;;;;;;11.80;2.72;;;;;;;31.18;45.43;100723.56;5038798;28;20026;-88
2022/07/29 09:52:18;;;;;;;13.07;3.22;;;;;;;31.20;45.90;100724.13;5038320;28;20060;-90
2022/07/29 09:54:44;;;;;;;12.65;3.67;;;;;;;31.24;46.03;100728.06;5037175;28;20029;-85
2022/07/29 09:57:26;;;;;;;18.40;4.82;;;;;;;31.27;44.53;100735.91;5037191;28;20166;-88
2022/07/29 10:00:00;;;;;;;6.33;2.63;;;;;;;31.29;43.34;100728.13;5019492;28;20025;-83
2022/07/29 10:02:32;;;;;;;5.22;2.63;;;;;;;31.17;42.89;100729.34;5037371;28;20370;-83
2022/07/29 10:04:58;;;;;;;13.13;3.10;;;;;;;31.20;42.99;100735.25;5018742;28;20116;-83
2022/07/29 10:07:24;;;;;;;14.65;3.72;;;;;;;31.20;42.34;100728.84;5037043;28;20096;-86
2022/07/29 10:09:54;;;;;;;31.27;4.13;;;;;;;31.29;43.48;100732.84;5037828;28;20029;-85
2022/07/29 10:12:19;;;;;;;6.88;2.47;;;;;;;31.17;43.26;100730.19;5037709;28;20017;-78
2022/07/29 10:14:45;;;;;;;23.98;3.97;;;;;;;31.05;44.35;100721.13;5038129;28;20083;-82
2022/07/29 10:17:11;;;;;;;6.18;2.53;;;;;;;31.19;44.98;100739.09;5043424;28;20072;-82
2022/07/29 10:19:38;;;;;;;12.55;3.58;;;;;;;31.08;45.36;100728.13;5040424;28;20025;-86
2022/07/29 10:22:08;;;;;;;13.13;3.38;;;;;;;31.13;45.34;100740.13;5058719;28;20052;-84
2022/07/29 10:24:35;;;;;;;13.90;8.98;;;;;;;31.11;44.85;100731.22;5057664;28;20109;-82
2022/07/29 10:27:02;;;;;;;14.35;3.70;;;;;;;31.24;45.49;100730.84;5058573;28;20025;-80
2022/07/29 10:29:28;;;;;;;8.20;3.10;;;;;;;31.43;45.27;100736.09;5058076;28;20115;-85
2022/07/29 10:32:41;;;;;;;5.68;2.85;;;;;;;31.46;44.55;100736.41;5057599;28;20020;-82
2022/07/29 10:35:07;;;;;;;12.15;3.13;;;;;;;31.45;44.47;100736.66;4934505;29;20031;-81
2022/07/29 10:38:15;;;;;;;12.82;2.80;;;;;;;31.64;44.32;100726.91;4925420;29;20035;-83
2022/07/29 10:41:26;;;;;;;7.72;2.65;;;;;;;31.76;43.01;100733.19;4990909;28;20937;-87
2022/07/29 10:43:56;;;;;;;7.50;2.65;;;;;;;31.81;41.89;100722.09;5015533;28;20025;-84
2022/07/29 10:46:22;;;;;;;12.13;3.20;;;;;;;31.78;41.06;100725.41;5029660;28;20103;-80
2022/07/29 10:49:18;;;;;;;10.75;3.10;;;;;;;31.94;41.14;100730.03;5036776;28;20076;-80
2022/07/29 10:51:57;;;;;;;2.78;2.30;;;;;;;32.04;41.03;100724.59;5036718;28;20033;-83
2022/07/29 10:54:34;;;;;;;29.77;3.50;;;;;;;32.15;40.24;100734.72;5034785;28;20018;-82
2022/07/29 10:57:13;;;;;;;74.30;6.72;;;;;;;32.25;40.55;100732.03;5015774;28;20060;-84
2022/07/29 10:59:39;;;;;;;13.00;2.75;;;;;;;32.25;40.00;100718.13;5027324;28;20029;-83
2022/07/29 11:02:47;;;;;;;14.90;3.55;;;;;;;32.45;40.09;100736.91;4998167;28;20854;-81
2022/07/29 11:05:15;;;;;;;10.20;3.38;;;;;;;32.47;40.13;100725.53;5048904;28;20029;-84
2022/07/29 11:08:12;;;;;;;7.97;2.70;;;;;;;32.44;40.40;100728.84;5048374;28;20036;-83
2022/07/29 11:10:38;;;;;;;27.88;3.88;;;;;;;32.41;41.21;100723.81;5050182;28;20029;-83
2022/07/29 11:13:04;;;;;;;9.57;3.13;;;;;;;32.48;41.01;100724.41;5054910;28;20029;-86
2022/07/29 11:15:57;;;;;;;21.75;3.15;;;;;;;32.51;39.76;100732.22;5055630;28;20029;-83
2022/07/29 11:18:23;;;;;;;9.18;2.70;;;;;;;32.42;41.22;100731.03;5055327;28;20036;-84
2022/07/29 11:20:50;;;;;;;6.00;2.47;;;;;;;32.27;41.86;100724.25;5055529;28;20509;-81
2022/07/29 11:23:30;;;;;;;26.83;3.53;;;;;;;32.17;42.18;100721.38;5054634;28;20024;-81
2022/07/29 11:26:26;;;;;;;8.07;3.03;;;;;;;32.31;41.29;100725.41;5054943;28;20037;-83
2022/07/29 11:28:54;;;;;;;8.90;3.03;;;;;;;32.34;41.55;100719.31;5017403;28;20041;-83
2022/07/29 11:31:34;;;;;;;19.17;5.50;;;;;;;32.50;41.74;100716.63;5053627;28;20029;-83
2022/07/29 11:34:19;;;;;;;14.15;2.58;;;;;;;32.43;41.35;100711.28;5055298;28;20028;-82